Nearby METAR Reports

 

KPAO - Palo Alto, California, USA
Distance from KPAO: NNW 0nm, 0mi
Updated: Thu, 09-Apr-2020 4:47pm PDT
Broken
Broken
 Wind from N
Wind: N 7 mph , 11 km/h
Temperature: 61°F , 16°C
Dew Point: 52°F , 11°C
Humidity: 72%
Barometer: 30.00 inHg , 1015.9 hPa
Clouds: Broken
Visibility: 10 miles , 16 km
Cloud details: Broken 5000 ft
Broken 20000 ft
2020/04/09 23:47 KPAO 092347Z 35006KT 10SM BKN050 BKN200 16/11 A3000
KSQL - San Carlos Airpo, California, USA
Distance from KPAO: WNW 7nm, 8mi
Updated: Thu, 09-Apr-2020 4:47pm PDT
Broken
Broken
 Wind from varies
Wind: varies 3 mph , 6 km/h
Temperature: 63°F , 17°C
Dew Point: 50°F , 10°C
Humidity: 64%
Barometer: 30.00 inHg , 1015.9 hPa
Clouds: Broken
Visibility: 10 miles , 16 km
Cloud details: Broken 3600 ft
Broken 6000 ft
2020/04/09 23:47 KSQL 092347Z VRB03KT 10SM BKN036 BKN060 17/10 A3000
 
KSJC - San Jose, California, USA
Distance from KPAO: ESE 11nm, 13mi
Updated: Thu, 09-Apr-2020 4:53pm PDT
Broken
Broken
 Wind from SSE
Wind: SSE 6 mph , 9 km/h
Temperature: 63°F , 17°C
Dew Point: 48°F , 9°C
Humidity: 59%
Barometer: 29.99 inHg , 1015.6 hPa
Clouds: Broken
Visibility: 10 miles , 16 km
Cloud details: Few Clouds 1000 ft
Broken 3200 ft
Broken 4300 ft
2020/04/09 23:53 KSJC 092353Z 16005KT 10SM FEW010 BKN032TCU BKN043 17/09 A2999 RMK AO2 SLP153 TCU N TCU DSNT N-E T01670089 10183 20144 56011
KHWD - Hayward, California, USA
Distance from KPAO: N 12nm, 14mi
Updated: Thu, 09-Apr-2020 4:54pm PDT
Overcast
Overcast
 Wind from NNW
Wind: NNW 6 mph , 9 km/h
Temperature: 63°F , 17°C
Dew Point: 48°F , 9°C
Humidity: 59%
Barometer: 29.99 inHg , 1015.6 hPa
Clouds: Overcast
Visibility: 10 miles , 16 km
Cloud details: Overcast 3700 ft
2020/04/09 23:54 KHWD 092354Z 34005KT 10SM OVC037 17/09 A2999 RMK AO2 SLP165 T01670089 10178 20139 56012
 
KSFO - San Francisco, California, USA
Distance from KPAO: NW 16nm, 18mi
Updated: Thu, 09-Apr-2020 4:56pm PDT
Broken
Broken
 Wind from WNW
Wind: WNW 3 mph , 6 km/h
Temperature: 63°F , 17°C
Dew Point: 50°F , 10°C
Humidity: 64%
Barometer: 29.99 inHg , 1015.6 hPa
Clouds: Broken
Visibility: 10 miles , 16 km
Cloud details: Few Clouds 1700 ft
Scattered 4500 ft
Broken 15000 ft
2020/04/09 23:56 KSFO 092356Z 30003KT 10SM FEW017 SCT045 BKN150 17/10 A2999 RMK AO2 SLP156 T01670100 10183 20144 56010
KRHV - San Jose/Reid, California, USA
Distance from KPAO: ESE 16nm, 18mi
Updated: Thu, 09-Apr-2020 4:47pm PDT
Broken
Broken
 Wind from S
Wind: S 9 mph , 15 km/h
Temperature: 63°F , 17°C
Dew Point: 52°F , 11°C
Humidity: 68%
Barometer: 29.99 inHg , 1015.6 hPa
Clouds: Broken
Visibility: 10 miles , 16 km
Cloud details: Broken 3200 ft
Broken 5000 ft
2020/04/09 23:47 KRHV 092347Z 17008KT 10SM BKN032 BKN050 17/11 A2999
 
KOAK - Oakland, California, USA
Distance from KPAO: NNW 16nm, 18mi
Updated: Thu, 09-Apr-2020 4:53pm PDT
Broken
Broken
 Wind from W
Wind: W 8 mph , 13 km/h
Temperature: 64°F , 18°C
Dew Point: 48°F , 9°C
Humidity: 56%
Barometer: 30.00 inHg , 1015.9 hPa
Clouds: Broken
Visibility: 10 miles , 16 km
Cloud details: Scattered 3500 ft
Broken 4600 ft
Broken 16000 ft
2020/04/09 23:53 KOAK 092353Z 27007KT 10SM SCT035 BKN046 BKN160 18/09 A3000 RMK AO2 SLP160 T01780094 10183 20156 56011
KHAF - Half Moon Bay, California, USA
Distance from KPAO: W 19nm, 22mi
Updated: Thu, 09-Apr-2020 4:55pm PDT
Broken
Broken
 Wind from S
Wind: S 8 mph , 13 km/h
Temperature: 55°F , 13°C
Dew Point: 52°F , 11°C
Humidity: 88%
Barometer: 30.02 inHg , 1016.6 hPa
Clouds: Broken
Visibility: 10 miles , 16 km
Cloud details: Few Clouds 1200 ft
Scattered 2100 ft
Broken 4500 ft
2020/04/09 23:55 KHAF 092355Z AUTO 19007KT 10SM FEW012 SCT021 BKN045 13/11 A3002 RMK AO2
 
KLVK - Livermore, California, USA
Distance from KPAO: NE 20nm, 23mi
Updated: Thu, 09-Apr-2020 4:53pm PDT
Clear
Clear
 Wind from NE
Wind: NE 10 mph , 17 km/h
Temperature: 61°F , 16°C
Dew Point: 48°F , 9°C
Humidity: 63%
Barometer: 29.99 inHg , 1015.6 hPa
Clouds: Clear
Visibility: 10 miles , 16 km
2020/04/09 23:53 KLVK 092353Z 05009KT 10SM CLR 16/09 A2999 RMK AO2 SLP152 T01610089 10161 20117 58014
KC83 - Byron, California, USA
Distance from KPAO: NE 32nm, 40mi
Updated: Sun, 29-Mar-2020 6:45am PDT
NOT Current
Mist, Overcast
Mist, Overcast
 Wind from calm
Wind: Calm
Temperature: 50°F , 10°C
Dew Point: 48°F , 9°C
Humidity: 94%
Barometer: 30.11 inHg , 1019.6 hPa
Summary: Mist
Clouds: Overcast
Visibility: 6 miles , 10 km
Cloud details: Overcast 6000 ft
2020/03/29 13:45 KC83 291345Z AUTO 00000KT 6SM BR OVC060 10/09 A3011 RMK AO2
 
KCCR - Concord, California, USA
Distance from KPAO: N 33nm, 37mi
Updated: Thu, 09-Apr-2020 4:53pm PDT
Few Clouds
Few Clouds
 Wind from NE
Wind: NE 6 mph , 9 km/h
Temperature: 63°F , 17°C
Dew Point: 48°F , 9°C
Humidity: 59%
Barometer: 30.01 inHg , 1016.3 hPa
Clouds: Few Clouds
Visibility: 10 miles , 16 km
Cloud details: Few Clouds 2900 ft
2020/04/09 23:53 KCCR 092353Z 05005KT 10SM FEW029 17/09 A3001 RMK AO2 SLP147 T01720094 10178 20144 56012
KWVI - Watsonville, California, USA
Distance from KPAO: SSE 35nm, 40mi
Updated: Thu, 09-Apr-2020 4:53pm PDT
Overcast
Overcast
 Wind from W
Wind: W 8 mph , 13 km/h
Temperature: 57°F , 14°C
Dew Point: 52°F , 11°C
Humidity: 82%
Barometer: 30.01 inHg , 1016.3 hPa
Clouds: Overcast
Visibility: 10 miles , 16 km
Cloud details: Broken 3000 ft
Broken 3900 ft
Overcast 5000 ft
2020/04/09 23:53 KWVI 092353Z AUTO 27007KT 10SM BKN030 BKN039 OVC050 14/11 A3001 RMK AO2 SLP163 T01440111 10161 20133 55006
 
KAPC - Napa, California, USA
Distance from KPAO: N 46nm, 53mi
Updated: Thu, 09-Apr-2020 4:54pm PDT
Clear
Clear
 Wind from E
Wind: E 13 mph , 20 km/h
Temperature: 63°F , 17°C
Dew Point: 48°F , 9°C
Humidity: 59%
Barometer: 29.99 inHg , 1015.6 hPa
Clouds: Clear
Visibility: 10 miles , 16 km
2020/04/09 23:54 KAPC 092354Z 09011KT 10SM CLR 17/09 A2999 RMK AO2 SLP147 T01720094 10178 20128 56016
KDVO - Novato/Gnoss Fld, California, USA
Distance from KPAO: NNW 46nm, 53mi
Updated: Thu, 09-Apr-2020 4:55pm PDT
Scattered
Scattered
 Wind from SE
Wind: SE 9 mph , 15 km/h, Gust: 15 mph , 24 km/h
Temperature: 61°F , 16°C
Dew Point: 50°F , 10°C
Humidity: 68%
Barometer: 30.01 inHg , 1016.3 hPa
Clouds: Scattered
Visibility: 10 miles , 16 km
Cloud details: Few Clouds 2600 ft
Scattered 3100 ft
2020/04/09 23:55 KDVO 092355Z AUTO 13008G13KT 10SM FEW026 SCT031 16/10 A3001 RMK AO2
 
KCVH - Hollister Muni, California, USA
Distance from KPAO: SE 48nm, 55mi
Updated: Thu, 09-Apr-2020 5:00pm PDT
Overcast
Overcast
 Wind from varies
Wind: varies 3 mph , 6 km/h
Temperature: 61°F , 16°C
Dew Point: 50°F , 10°C
Humidity: 68%
Barometer: 30.00 inHg , 1015.9 hPa
Clouds: Overcast
Visibility: 10 miles , 16 km
Cloud details: Broken 3800 ft
Broken 4400 ft
Overcast 5000 ft
2020/04/10 00:00 KCVH 100000Z AUTO VRB03KT 10SM BKN038 BKN044 OVC050 16/10 A3000 RMK A01
KSUU - Travis Afb/Fairf, California, USA
Distance from KPAO: ENE 49nm, 56mi
Updated: Thu, 09-Apr-2020 4:58pm PDT
Scattered
Scattered
 Wind from E
Wind: E 10 mph , 17 km/h, Gust: 17 mph , 28 km/h
Temperature: 64°F , 18°C
Dew Point: 46°F , 8°C
Humidity: 52%
Barometer: 30.01 inHg , 1016.3 hPa
Clouds: Scattered
Visibility: 10 miles , 16 km
Cloud details: Few Clouds 3500 ft
Scattered 16000 ft
2020/04/09 23:58 KSUU 092358Z AUTO 09009G15KT 10SM FEW035 SCT160 18/08 A3001 RMK AO2 SLP169 T01770083 10178 20130 57015 $
 
KSCK - Stockton, California, USA
Distance from KPAO: ENE 49nm, 56mi
Updated: Thu, 09-Apr-2020 4:55pm PDT
Few Clouds
Few Clouds
 Wind from SE
Wind: SE 9 mph , 15 km/h
Temperature: 64°F , 18°C
Dew Point: 50°F , 10°C
Humidity: 60%
Barometer: 30.01 inHg , 1016.3 hPa
Clouds: Few Clouds
Visibility: 10 miles , 16 km
Cloud details: Few Clouds 3200 ft
2020/04/09 23:55 KSCK 092355Z 14008KT 10SM FEW032 18/10 A3001 RMK AO2 SLP161 T01780100 10178 20133 56015
KO69 - Petaluma, California, USA
Distance from KPAO: W 53nm, 61mi
Updated: Thu, 09-Apr-2020 4:55pm PDT
Scattered
Scattered
 Wind from SE
Wind: SE 8 mph , 13 km/h, Gust: 15 mph , 24 km/h
Temperature: 64°F , 18°C
Dew Point: 54°F , 12°C
Humidity: 68%
Barometer: 30.00 inHg , 1015.9 hPa
Clouds: Scattered
Visibility: 10 miles , 16 km
Cloud details: Scattered 3400 ft
Scattered 4900 ft
2020/04/09 23:55 KO69 092355Z AUTO 14007G13KT 110V170 10SM SCT034 SCT049 18/12 A3000 RMK A01
 
KSNS - Salinas, California, USA
Distance from KPAO: SSE 54nm, 62mi
Updated: Thu, 09-Apr-2020 4:53pm PDT
Overcast
Overcast
 Wind from varies
Wind: varies 7 mph , 11 km/h
Temperature: 61°F , 16°C
Dew Point: 48°F , 9°C
Humidity: 63%
Barometer: 30.00 inHg , 1015.9 hPa
Clouds: Overcast
Visibility: 10 miles , 16 km
Cloud details: Overcast 3200 ft
2020/04/09 23:53 KSNS 092353Z VRB06KT 10SM OVC032 16/09 A3000 RMK AO2 SLP166 T01610094 10161 20128 55007
KMRY - Monterey, California, USA
Distance from KPAO: SSE 54nm, 62mi
Updated: Thu, 09-Apr-2020 4:54pm PDT
Overcast
Overcast
 Wind from NNW
Wind: NNW 3 mph , 6 km/h
Temperature: 63°F , 17°C
Dew Point: 50°F , 10°C
Humidity: 64%
Barometer: 30.01 inHg , 1016.3 hPa
Clouds: Overcast
Visibility: 10 miles , 16 km
Cloud details: Scattered 1900 ft
Broken 3900 ft
Overcast 6500 ft
2020/04/09 23:54 KMRY 092354Z 34003KT 10SM SCT019 BKN039 OVC065 17/10 A3001 RMK AO2 SLP173 T01670100 10172 20144 56007
 
KVCB - Vacaville, California, USA
Distance from KPAO: NE 55nm, 63mi
Updated: Thu, 09-Apr-2020 4:53pm PDT
Few Clouds
Few Clouds
 Wind from varies
Wind: varies 7 mph , 11 km/h
Temperature: 63°F , 17°C
Dew Point: 46°F , 8°C
Humidity: 56%
Barometer: 30.02 inHg , 1016.6 hPa
Clouds: Few Clouds
Visibility: 10 miles , 16 km
Cloud details: Few Clouds 3100 ft
2020/04/09 23:53 KVCB 092353Z AUTO VRB06KT 10SM FEW031 17/08 A3002 RMK AO2 SLP166 6//// T01720083 10178 20128 56017 PNO
KMOD - Modesto, California, USA
Distance from KPAO: E 56nm, 64mi
Updated: Thu, 09-Apr-2020 4:53pm PDT
Scattered
Scattered
 Wind from varies
Wind: varies 6 mph , 9 km/h
Temperature: 61°F , 16°C
Dew Point: 46°F , 8°C
Humidity: 59%
Barometer: 30.01 inHg , 1016.3 hPa
Clouds: Scattered
Visibility: 10 miles , 16 km
Cloud details: Few Clouds 2700 ft
Scattered 3600 ft
Scattered 4300 ft
2020/04/09 23:53 KMOD 092353Z VRB05KT 10SM FEW027 SCT036 SCT043 16/08 A3001 RMK AO2 SLP162 T01610083 10161 20117 56013
 
KEDU - Davis, California, USA
Distance from KPAO: NE 66nm, 76mi
Updated: Thu, 09-Apr-2020 4:55pm PDT
Clear
Clear
 Wind from SSE
Wind: SSE 7 mph , 11 km/h
Temperature: 63°F , 17°C
Dew Point: 48°F , 9°C
Humidity: 59%
Barometer: 30.02 inHg , 1016.6 hPa
Clouds: Clear
Visibility: 10 miles , 16 km
2020/04/09 23:55 KEDU 092355Z AUTO 15006KT 10SM CLR 17/09 A3002 RMK AO1
KSAC - Sacramento, California, USA
Distance from KPAO: NE 70nm, 81mi
Updated: Thu, 09-Apr-2020 4:53pm PDT
Overcast
Overcast
 Wind from S
Wind: S 5 mph , 7 km/h
Temperature: 63°F , 17°C
Dew Point: 48°F , 9°C
Humidity: 59%
Barometer: 30.01 inHg , 1016.3 hPa
Clouds: Overcast
Visibility: 10 miles , 16 km
Cloud details: Overcast 4500 ft
2020/04/09 23:53 KSAC 092353Z 17004KT 10SM OVC045 17/09 A3001 RMK AO2 SLP163 T01720089 10178 20133 56016
 
KSTS - Santa Rosa, California, USA
Distance from KPAO: NW 71nm, 82mi
Updated: Thu, 09-Apr-2020 4:53pm PDT
Broken
Broken
 Wind from S
Wind: S 7 mph , 11 km/h
Temperature: 64°F , 18°C
Dew Point: 52°F , 11°C
Humidity: 64%
Barometer: 29.99 inHg , 1015.6 hPa
Clouds: Broken
Visibility: 10 miles , 16 km
Cloud details: Scattered 3600 ft
Broken 4800 ft
2020/04/09 23:53 KSTS 092353Z 19006KT 10SM SCT036 BKN048 18/11 A2999 RMK AO2 SLP148 T01780106 10183 20139 57013
KMHR - Mather Field, California, USA
Distance from KPAO: ENE 76nm, 88mi
Updated: Thu, 09-Apr-2020 4:50pm PDT
Broken
Broken
 Wind from SSE
Wind: SSE 6 mph , 9 km/h
Temperature: 63°F , 17°C
Dew Point: 48°F , 9°C
Humidity: 59%
Barometer: 30.01 inHg , 1016.3 hPa
Clouds: Broken
Visibility: 10 miles , 16 km
Cloud details: Scattered 3800 ft
Broken 5000 ft
2020/04/09 23:50 KMHR 092350Z 15005KT 10SM SCT038 BKN050 17/09 A3001
 
KSMF - Sacramento/Metro, California, USA
Distance from KPAO: NE 78nm, 90mi
Updated: Thu, 09-Apr-2020 4:53pm PDT
Broken
Broken
 Wind from varies
Wind: varies 3 mph , 6 km/h
Temperature: 63°F , 17°C
Dew Point: 46°F , 8°C
Humidity: 56%
Barometer: 30.01 inHg , 1016.3 hPa
Clouds: Broken
Visibility: 10 miles , 16 km
Cloud details: Scattered 4600 ft
Broken 25000 ft
2020/04/09 23:53 KSMF 092353Z VRB03KT 10SM SCT046 BKN250 17/08 A3001 RMK AO2 SLP160 T01670083 10172 20133 56018
KMCC - Mcclellan Afb, California, USA
Distance from KPAO: NE 80nm, 92mi
Updated: Thu, 09-Apr-2020 4:55pm PDT
Overcast
Overcast
 Wind from varies
Wind: varies 5 mph , 7 km/h
Temperature: 63°F , 17°C
Dew Point: 48°F , 9°C
Humidity: 59%
Barometer: 30.01 inHg , 1016.3 hPa
Clouds: Overcast
Visibility: 10 miles , 16 km
Cloud details: Scattered 4200 ft
Overcast 5000 ft
2020/04/09 23:55 KMCC 092355Z AUTO VRB04KT 10SM SCT042 OVC050 17/09 A3001 RMK AO2
 
KNKX - Miramar MCAS (Joe Foss Field) Airport, California, USA
Distance from KPAO: SE 368nm, 423mi
Updated: Thu, 09-Apr-2020 4:55pm PDT
Overcast
Overcast
 Wind from SW
Wind: SW 10 mph , 17 km/h
Temperature: 59°F , 15°C
Dew Point: 46°F , 8°C
Humidity: 63%
Barometer: 30.06 inHg , 1017.9 hPa
Clouds: Overcast
Visibility: 10 miles , 16 km
Cloud details: Broken 5500 ft
Overcast 8000 ft
2020/04/09 23:55 KNKX 092355Z 22009KT 10SM BKN055 OVC080 15/08 A3006 RMK AO2 SLP176 60003 T01500083 10183 20128 56014
KMYF - Montgomery-Gibbs Executive Airport, California, USA
Distance from KPAO: SE 371nm, 427mi
Updated: Thu, 09-Apr-2020 4:53pm PDT
Overcast
Overcast
 Wind from SW
Wind: SW 10 mph , 17 km/h
Temperature: 57°F , 14°C
Dew Point: 45°F , 7°C
Humidity: 63%
Barometer: 30.07 inHg , 1018.3 hPa
Clouds: Overcast
Visibility: 10 miles , 16 km
Cloud details: Few Clouds 5500 ft
Broken 7500 ft
Overcast 12000 ft
2020/04/09 23:53 KMYF 092353Z 22009KT 10SM FEW055 BKN075 OVC120 14/07 A3007 RMK AO2 SLP180 60000 T01440072 10167 20122 56014